Sheldon, North Dakota
Current Conditions -  °F | °C
As of 6:15 AM on Monday 22 Dec 2014 (Local Time) from KGWR Reporting Station
Overcast Overcast  
Wind Chill: 29°   Ceiling: 100
Heat Index: 36°   Visibility: 0.25mi
Dew Point: 36°   Wind: 9mph
Humidity: 100%   Direction: 120°ESE
Pressure: 29.46"   Gusts: NA
Location:  46.59°N, 97.49°W
Report Text: KGWR 221215Z AUTO 12008KT 1/4SM OVC001 02/02 A2946 RMK A01 P000
Loading
Personal Weather Stations






























Interactive Weather Map New forecast layout! Learn more

10-Day Weather Forecast

Advertisements
Track Severe Weather on mobile